createdAt,value
2023-01-03T00:02:40.966Z,1.20
2023-01-03T00:05:23.556Z,1.10
2023-01-03T00:08:06.448Z,0.80
2023-01-03T00:10:49.016Z,1.00
2023-01-03T00:13:31.718Z,0.90
2023-01-03T00:16:17.568Z,1.17
2023-01-03T00:19:01.523Z,0.88
2023-01-03T00:21:44.252Z,0.98
2023-01-03T00:24:26.849Z,1.00
2023-01-03T00:27:09.453Z,1.00
2023-01-03T00:29:52.702Z,1.00
2023-01-03T00:32:35.306Z,1.00
2023-01-03T00:35:19.233Z,1.40
2023-01-03T00:38:02.138Z,1.15
2023-01-03T00:40:44.673Z,1.10
2023-01-03T00:43:29.826Z,0.80
2023-01-03T00:46:13.440Z,0.80
2023-01-03T00:48:56.135Z,0.93
2023-01-03T00:51:41.269Z,0.95
2023-01-03T00:54:23.954Z,0.98
2023-01-03T00:57:06.516Z,0.90
2023-01-03T00:59:49.071Z,0.80
2023-01-03T01:02:31.853Z,1.20
2023-01-03T01:05:14.605Z,0.98
2023-01-03T01:07:58.782Z,1.08
2023-01-03T01:11:01.624Z,1.00
2023-01-03T01:13:44.677Z,0.77
2023-01-03T01:16:29.140Z,0.80
2023-01-03T01:19:11.815Z,1.08
2023-01-03T01:21:54.398Z,0.75
2023-01-03T01:24:38.360Z,0.90
2023-01-03T01:27:20.900Z,0.95
2023-01-03T01:30:03.493Z,0.88
2023-01-03T01:32:46.068Z,0.98
2023-01-03T01:35:28.620Z,0.98
2023-01-03T01:38:11.223Z,0.75
2023-01-03T01:40:56.369Z,0.90
2023-01-03T01:44:11.364Z,1.13
2023-01-03T01:46:54.015Z,0.90
2023-01-03T01:49:36.641Z,0.82
2023-01-03T01:52:21.102Z,0.70
2023-01-03T01:55:05.045Z,1.02
2023-01-03T01:57:49.241Z,0.70
2023-01-03T02:00:31.938Z,1.13
2023-01-03T02:03:14.715Z,0.80
2023-01-03T02:05:58.022Z,0.93
2023-01-03T02:08:40.619Z,0.80
2023-01-03T02:11:29.289Z,0.70
2023-01-03T02:14:25.459Z,0.90
2023-01-03T02:17:13.275Z,0.80
2023-01-03T02:20:06.949Z,0.90
2023-01-03T02:23:03.699Z,1.00
2023-01-03T02:26:10.032Z,0.63
2023-01-03T02:29:02.071Z,0.77
2023-01-03T02:31:47.902Z,0.98
2023-01-03T02:34:34.083Z,0.70
2023-01-03T02:37:20.580Z,0.82
2023-01-03T02:40:06.573Z,0.93
2023-01-03T02:43:02.109Z,0.90
2023-01-03T02:45:50.272Z,1.00
2023-01-03T02:48:42.801Z,1.25
2023-01-03T02:51:28.607Z,0.77
2023-01-03T02:54:13.136Z,1.00
2023-01-03T02:56:59.734Z,0.95
2023-01-03T02:59:44.658Z,0.80
2023-01-03T03:02:29.640Z,1.00
2023-01-03T03:05:16.129Z,0.90
2023-01-03T03:07:58.684Z,1.05
2023-01-03T03:11:14.365Z,1.05
2023-01-03T03:13:59.594Z,1.17
2023-01-03T03:16:49.485Z,1.08
2023-01-03T03:19:50.346Z,1.25
2023-01-03T03:22:54.693Z,1.30
2023-01-03T03:25:38.965Z,1.00
2023-01-03T03:28:37.234Z,1.08
2023-01-03T03:31:22.801Z,1.40
2023-01-03T03:34:08.398Z,1.02
2023-01-03T03:36:54.026Z,1.00
2023-01-03T03:39:55.410Z,1.23
2023-01-03T03:42:59.081Z,1.30
2023-01-03T03:45:43.446Z,0.93
2023-01-03T03:48:29.909Z,1.20
2023-01-03T03:51:14.932Z,0.85
2023-01-03T03:53:58.319Z,1.00
2023-01-03T03:56:43.487Z,1.10
2023-01-03T03:59:27.934Z,1.00
2023-01-03T04:02:12.337Z,1.20
2023-01-03T04:04:56.760Z,1.00
2023-01-03T04:07:40.068Z,0.90
2023-01-03T04:10:23.615Z,1.00
2023-01-03T04:13:07.543Z,1.00
2023-01-03T04:15:50.126Z,1.35
2023-01-03T04:18:32.680Z,1.10
2023-01-03T04:21:20.431Z,1.02
2023-01-03T04:24:03.635Z,1.02
2023-01-03T04:26:46.235Z,1.10
2023-01-03T04:29:34.126Z,1.08
2023-01-03T04:32:21.765Z,1.05
2023-01-03T04:35:04.522Z,1.50
2023-01-03T04:37:47.079Z,1.00
2023-01-03T04:40:29.650Z,1.02
2023-01-03T04:43:29.614Z,1.30
2023-01-03T04:46:13.566Z,1.08
2023-01-03T04:48:56.181Z,0.88
2023-01-03T04:51:39.198Z,1.10
2023-01-03T04:54:22.419Z,1.10
2023-01-03T04:57:05.047Z,1.25
2023-01-03T04:59:47.654Z,1.30
2023-01-03T05:02:31.632Z,1.30
2023-01-03T05:05:14.322Z,1.33
2023-01-03T05:07:56.905Z,1.50
2023-01-03T05:10:39.739Z,1.48
2023-01-03T05:13:22.458Z,1.20
2023-01-03T05:16:06.882Z,1.20
2023-01-03T05:18:53.286Z,1.40
2023-01-03T05:21:53.586Z,1.33
2023-01-03T05:24:53.507Z,1.13
2023-01-03T05:27:36.161Z,1.10
2023-01-03T05:30:18.906Z,1.38
2023-01-03T05:33:01.490Z,1.30
2023-01-03T05:35:48.217Z,1.38
2023-01-03T05:38:30.782Z,1.40
2023-01-03T05:41:13.724Z,1.40
2023-01-03T05:43:56.314Z,1.35
2023-01-03T05:46:38.898Z,1.15
2023-01-03T05:49:21.497Z,1.30
2023-01-03T05:52:05.633Z,1.17
2023-01-03T05:54:48.239Z,1.20
2023-01-03T05:57:35.418Z,1.30
2023-01-03T06:00:18.445Z,1.48
2023-01-03T06:03:01.260Z,1.33
2023-01-03T06:05:49.901Z,1.33
2023-01-03T06:08:34.820Z,1.30
2023-01-03T06:11:17.834Z,1.38
2023-01-03T06:14:00.414Z,1.23
2023-01-03T06:17:00.270Z,1.30
2023-01-03T06:19:42.844Z,1.27
2023-01-03T06:22:25.416Z,1.77
2023-01-03T06:25:09.792Z,1.40
2023-01-03T06:27:52.464Z,1.55
2023-01-03T06:30:35.061Z,1.70
2023-01-03T06:33:17.928Z,1.65
2023-01-03T06:36:02.636Z,1.60
2023-01-03T06:38:45.550Z,1.63
2023-01-03T06:41:29.486Z,1.65
2023-01-03T06:44:12.570Z,1.60
2023-01-03T06:47:12.766Z,1.67
2023-01-03T06:50:15.019Z,1.67
2023-01-03T06:53:15.742Z,1.85
2023-01-03T06:55:59.305Z,1.60
2023-01-03T06:58:43.205Z,2.00
2023-01-03T07:01:25.924Z,1.50
2023-01-03T07:04:08.606Z,1.80
2023-01-03T07:06:51.261Z,1.88
2023-01-03T07:09:33.920Z,1.80
2023-01-03T07:12:36.715Z,1.75
2023-01-03T07:15:20.760Z,1.75
2023-01-03T07:18:03.495Z,1.60
2023-01-03T07:20:46.326Z,1.83
2023-01-03T07:23:28.897Z,1.95
2023-01-03T07:26:11.658Z,1.67
2023-01-03T07:28:54.265Z,2.00
2023-01-03T07:31:41.537Z,1.85
2023-01-03T07:34:24.246Z,1.58
2023-01-03T07:37:06.854Z,1.85
2023-01-03T07:39:49.524Z,1.60
2023-01-03T07:43:00.908Z,1.77
2023-01-03T07:45:44.541Z,2.05
2023-01-03T07:48:28.525Z,1.85
2023-01-03T07:51:11.975Z,1.98
2023-01-03T07:53:54.637Z,1.75
2023-01-03T07:56:37.437Z,1.90
2023-01-03T07:59:20.027Z,1.70
2023-01-03T08:02:02.794Z,1.70
2023-01-03T08:04:46.989Z,1.45
2023-01-03T08:07:29.644Z,1.58
2023-01-03T08:10:29.874Z,1.60
2023-01-03T08:13:18.441Z,1.70
2023-01-03T08:16:01.066Z,1.60
2023-01-03T08:18:44.026Z,1.35
2023-01-03T08:21:27.995Z,1.70
2023-01-03T08:24:10.756Z,1.75
2023-01-03T08:26:53.386Z,1.73
2023-01-03T08:29:36.037Z,1.80
2023-01-03T08:32:18.647Z,1.30
2023-01-03T08:35:01.607Z,1.65
2023-01-03T08:37:45.701Z,1.73
2023-01-03T08:40:28.664Z,1.60
2023-01-03T08:43:11.930Z,1.70
2023-01-03T08:45:54.593Z,1.73
2023-01-03T08:48:37.280Z,1.88
2023-01-03T08:51:20.021Z,1.55
2023-01-03T08:54:04.059Z,2.00
2023-01-03T08:56:46.716Z,2.30
2023-01-03T08:59:29.298Z,2.13
2023-01-03T09:02:12.079Z,2.30
2023-01-03T09:04:54.851Z,2.30
2023-01-03T09:07:37.548Z,2.92
2023-01-03T09:10:21.561Z,2.25
2023-01-03T09:13:04.345Z,2.70
2023-01-03T09:15:47.033Z,2.42
2023-01-03T09:18:29.646Z,2.92
2023-01-03T09:21:12.278Z,2.53
2023-01-03T09:23:54.908Z,2.40
2023-01-03T09:26:38.870Z,2.63
2023-01-03T09:29:21.552Z,2.83
2023-01-03T09:32:04.286Z,2.75
2023-01-03T09:34:47.023Z,2.90
2023-01-03T09:37:30.041Z,3.28
2023-01-03T09:40:13.504Z,2.83
2023-01-03T09:43:21.443Z,2.95
2023-01-03T09:46:08.071Z,2.80
2023-01-03T09:48:51.626Z,3.28
2023-01-03T09:51:54.049Z,3.03
2023-01-03T09:54:57.547Z,3.03
2023-01-03T09:57:57.462Z,2.50
2023-01-03T10:01:01.756Z,2.42
2023-01-03T10:03:51.969Z,2.95
2023-01-03T10:06:42.157Z,2.45
2023-01-03T10:09:28.912Z,2.03
2023-01-03T10:12:17.758Z,2.25
2023-01-03T10:15:06.221Z,2.38
2023-01-03T10:17:55.602Z,2.10
2023-01-03T10:20:43.257Z,2.55
2023-01-03T10:23:25.865Z,2.03
2023-01-03T10:26:10.043Z,2.17
2023-01-03T10:28:52.966Z,2.45
2023-01-03T10:31:40.970Z,2.15
2023-01-03T10:34:25.176Z,2.20
2023-01-03T10:37:16.521Z,2.45
2023-01-03T10:40:02.865Z,2.30
2023-01-03T10:42:46.414Z,2.20
2023-01-03T10:45:30.704Z,2.53
2023-01-03T10:48:15.277Z,2.25
2023-01-03T10:50:59.256Z,2.17
2023-01-03T10:53:43.195Z,2.10
2023-01-03T10:56:26.684Z,2.35
2023-01-03T10:59:13.445Z,2.38
2023-01-03T11:01:57.407Z,2.20
2023-01-03T11:04:40.221Z,2.22
2023-01-03T11:07:24.227Z,2.30
2023-01-03T11:10:16.304Z,2.20
2023-01-03T11:12:59.543Z,2.50
2023-01-03T11:15:43.694Z,1.80
2023-01-03T11:18:27.779Z,2.20
2023-01-03T11:21:14.105Z,2.10
2023-01-03T11:24:04.215Z,2.55
2023-01-03T11:26:50.298Z,2.03
2023-01-03T11:29:44.855Z,2.40
2023-01-03T11:32:34.163Z,2.53
2023-01-03T11:35:30.735Z,2.17
2023-01-03T11:38:21.740Z,2.10
2023-01-03T11:41:11.615Z,2.53
2023-01-03T11:43:59.613Z,2.13
2023-01-03T11:46:49.253Z,1.95
2023-01-03T11:49:37.990Z,1.92
2023-01-03T11:52:28.436Z,2.13
2023-01-03T11:55:26.111Z,2.28
2023-01-03T11:58:18.675Z,2.08
2023-01-03T12:01:03.363Z,2.30
2023-01-03T12:03:54.380Z,2.17
2023-01-03T12:06:39.921Z,1.70
2023-01-03T12:09:26.510Z,1.40
2023-01-03T12:12:18.754Z,1.50
2023-01-03T12:15:05.571Z,1.50
2023-01-03T12:17:49.820Z,1.60
2023-01-03T12:20:33.371Z,1.30
2023-01-03T12:23:19.725Z,1.30
2023-01-03T12:26:03.807Z,1.20
2023-01-03T12:28:50.051Z,1.30
2023-01-03T12:31:37.490Z,1.20
2023-01-03T12:34:24.577Z,1.23
2023-01-03T12:37:12.848Z,1.30
2023-01-03T12:39:56.630Z,1.10
2023-01-03T12:42:41.936Z,1.10
2023-01-03T12:45:34.843Z,1.05
2023-01-03T12:48:38.098Z,1.02
2023-01-03T12:51:21.711Z,1.05
2023-01-03T12:54:10.092Z,1.00
2023-01-03T12:57:01.839Z,1.05
2023-01-03T12:59:55.060Z,1.10
2023-01-03T13:02:44.076Z,0.98
2023-01-03T13:05:31.492Z,1.20
2023-01-03T13:08:18.914Z,0.90
2023-01-03T13:11:02.986Z,1.23
2023-01-03T13:13:50.156Z,0.90
2023-01-03T13:16:39.013Z,0.90
2023-01-03T13:19:48.771Z,0.95
2023-01-03T13:22:49.100Z,1.10
2023-01-03T13:25:34.969Z,0.80
2023-01-03T13:28:35.449Z,0.90
2023-01-03T13:31:48.234Z,1.13
2023-01-03T13:34:32.782Z,0.98
2023-01-03T13:37:22.567Z,1.02
2023-01-03T13:40:52.194Z,1.30
2023-01-03T13:43:39.481Z,1.20
2023-01-03T13:46:24.795Z,1.30
2023-01-03T13:49:09.033Z,1.25
2023-01-03T13:51:52.091Z,1.10
2023-01-03T13:54:55.798Z,1.30
2023-01-03T13:57:40.039Z,1.48
2023-01-03T14:00:24.311Z,1.42
2023-01-03T14:03:28.347Z,1.33
2023-01-03T14:06:22.554Z,1.90
2023-01-03T14:09:25.498Z,1.50
2023-01-03T14:12:16.134Z,1.48
2023-01-03T14:14:59.047Z,1.40
2023-01-03T14:17:45.078Z,1.40
2023-01-03T14:20:29.256Z,1.60
2023-01-03T14:23:57.770Z,1.50
2023-01-03T14:26:17.645Z,1.30
2023-01-03T14:29:00.322Z,1.60
2023-01-03T14:31:46.065Z,1.73
2023-01-03T14:34:32.787Z,1.25
2023-01-03T14:37:17.745Z,1.70
2023-01-03T14:40:01.349Z,1.70
2023-01-03T14:42:45.711Z,1.80
2023-01-03T14:45:28.790Z,1.65
2023-01-03T14:48:17.288Z,2.00
2023-01-03T14:51:03.495Z,1.63
2023-01-03T14:53:46.862Z,1.60
2023-01-03T14:56:29.834Z,1.90
2023-01-03T14:59:15.705Z,2.35
2023-01-03T15:01:58.449Z,1.73
2023-01-03T15:04:43.357Z,2.33
2023-01-03T15:07:30.162Z,3.75
2023-01-03T15:10:22.586Z,2.83
2023-01-03T15:13:11.324Z,2.85
2023-01-03T15:15:54.691Z,2.95
2023-01-03T15:18:38.541Z,3.55
2023-01-03T15:21:21.805Z,3.50
2023-01-03T15:24:06.351Z,3.85
2023-01-03T15:26:49.767Z,3.53
2023-01-03T15:29:44.150Z,2.80
2023-01-03T15:32:27.705Z,3.20
2023-01-03T15:35:19.282Z,3.05
2023-01-03T15:38:03.272Z,2.92
2023-01-03T15:40:49.171Z,2.72
2023-01-03T15:43:32.242Z,2.60
2023-01-03T15:46:17.391Z,2.72
2023-01-03T15:49:00.257Z,2.90
2023-01-03T15:51:43.138Z,2.70
2023-01-03T15:54:25.796Z,2.63
2023-01-03T15:57:13.989Z,3.00
2023-01-03T15:59:58.527Z,3.20
2023-01-03T16:02:41.380Z,3.20
2023-01-03T16:05:24.090Z,2.50
2023-01-03T16:08:10.946Z,3.28
2023-01-03T16:10:53.951Z,3.35
2023-01-03T16:13:39.602Z,3.00
2023-01-03T16:16:23.864Z,2.90
2023-01-03T16:19:07.103Z,3.28
2023-01-03T16:22:16.080Z,2.97
2023-01-03T16:24:53.049Z,3.42
2023-01-03T16:27:36.139Z,3.10
2023-01-03T16:30:20.148Z,3.50
2023-01-03T16:33:02.776Z,3.42
2023-01-03T16:35:45.420Z,3.90
2023-01-03T16:38:28.622Z,4.35
2023-01-03T16:41:11.468Z,3.72
2023-01-03T16:43:54.923Z,3.80
2023-01-03T16:46:39.171Z,3.58
2023-01-03T16:49:21.775Z,4.03
2023-01-03T16:52:04.654Z,3.90
2023-01-03T16:54:47.552Z,4.50
2023-01-03T16:57:30.642Z,4.38
2023-01-03T17:00:17.331Z,4.55
2023-01-03T17:03:01.833Z,4.60
2023-01-03T17:05:44.759Z,4.35
2023-01-03T17:08:30.393Z,5.13
2023-01-03T17:11:13.010Z,4.90
2023-01-03T17:13:57.762Z,4.82
2023-01-03T17:16:40.507Z,5.10
2023-01-03T17:20:02.830Z,5.90
2023-01-03T17:22:29.060Z,5.25
2023-01-03T17:25:12.435Z,5.38
2023-01-03T17:27:57.256Z,5.25
2023-01-03T17:30:39.972Z,5.60
2023-01-03T17:33:22.589Z,5.75
2023-01-03T17:36:09.655Z,5.53
2023-01-03T17:38:52.697Z,5.43
2023-01-03T17:41:55.372Z,6.03
2023-01-03T17:44:38.072Z,5.53
2023-01-03T17:47:39.538Z,5.72
2023-01-03T17:50:22.148Z,5.70
2023-01-03T17:53:06.126Z,6.00
2023-01-03T17:55:50.159Z,5.93
2023-01-03T17:58:33.880Z,6.32
2023-01-03T18:01:16.821Z,6.30
2023-01-03T18:03:59.878Z,5.85
2023-01-03T18:06:43.152Z,5.70
2023-01-03T18:09:27.784Z,5.93
2023-01-03T18:12:10.820Z,5.90
2023-01-03T18:14:53.596Z,6.30
2023-01-03T18:17:36.212Z,6.28
2023-01-03T18:20:19.492Z,6.47
2023-01-03T18:23:02.533Z,6.45
2023-01-03T18:25:46.940Z,6.38
2023-01-03T18:28:30.159Z,6.15
2023-01-03T18:31:15.195Z,6.57
2023-01-03T18:33:58.167Z,6.90
2023-01-03T18:36:41.769Z,6.93
2023-01-03T18:39:27.160Z,7.03
2023-01-03T18:42:30.616Z,6.78
2023-01-03T18:45:13.519Z,6.53
2023-01-03T18:47:56.171Z,7.18
2023-01-03T18:50:38.818Z,7.15
2023-01-03T18:53:23.947Z,7.07
2023-01-03T18:56:06.743Z,7.07
2023-01-03T18:58:53.355Z,6.80
2023-01-03T19:01:39.698Z,7.30
2023-01-03T19:04:22.571Z,7.15
2023-01-03T19:07:05.152Z,7.10
2023-01-03T19:09:47.855Z,6.95
2023-01-03T19:12:30.634Z,7.57
2023-01-03T19:15:18.688Z,7.18
2023-01-03T19:18:01.964Z,7.72
2023-01-03T19:20:44.840Z,7.40
2023-01-03T19:23:27.952Z,7.45
2023-01-03T19:26:25.300Z,7.65
2023-01-03T19:29:08.971Z,7.40
2023-01-03T19:31:55.120Z,7.63
2023-01-03T19:34:37.807Z,7.50
2023-01-03T19:37:20.746Z,7.07
2023-01-03T19:40:03.412Z,7.63
2023-01-03T19:42:50.425Z,7.55
2023-01-03T19:45:34.352Z,7.75
2023-01-03T19:48:19.791Z,7.55
2023-01-03T19:51:02.454Z,7.82
2023-01-03T19:53:45.429Z,7.88
2023-01-03T19:56:28.059Z,7.50
2023-01-03T19:59:19.194Z,7.70
2023-01-03T20:05:13.609Z,7.75
2023-01-03T20:07:56.342Z,7.88
2023-01-03T20:10:39.618Z,8.20
2023-01-03T20:13:24.156Z,7.80
2023-01-03T20:16:07.071Z,7.60
2023-01-03T20:18:49.716Z,7.85
2023-01-03T20:21:33.689Z,7.78
2023-01-03T20:24:21.067Z,7.53
2023-01-03T20:27:03.810Z,7.32
2023-01-03T20:29:46.435Z,8.38
2023-01-03T20:32:29.223Z,6.97
2023-01-03T20:36:06.191Z,7.13
2023-01-03T20:38:24.578Z,7.05
2023-01-03T20:41:07.850Z,7.15
2023-01-03T20:43:52.279Z,7.07
2023-01-03T20:46:35.138Z,7.07
2023-01-03T20:49:19.612Z,7.18
2023-01-03T20:52:02.321Z,6.93
2023-01-03T20:54:46.347Z,7.10
2023-01-03T20:57:29.091Z,6.40
2023-01-03T21:00:20.769Z,6.47
2023-01-03T21:03:03.781Z,6.72
2023-01-03T21:05:46.523Z,6.75
2023-01-03T21:08:46.891Z,6.40
2023-01-03T21:11:31.610Z,7.07
2023-01-03T21:14:14.853Z,6.82
2023-01-03T21:16:57.533Z,7.35
2023-01-03T21:19:43.314Z,6.70
2023-01-03T21:22:26.044Z,6.65
2023-01-03T21:25:13.566Z,6.93
2023-01-03T21:27:57.530Z,6.38
2023-01-03T21:30:40.682Z,5.90
2023-01-03T21:33:23.328Z,6.22
2023-01-03T21:36:06.343Z,6.88
2023-01-03T21:38:48.961Z,5.95
2023-01-03T21:41:32.798Z,5.60
2023-01-03T21:44:16.773Z,5.85
2023-01-03T21:46:59.434Z,5.68
2023-01-03T21:49:42.045Z,5.85
2023-01-03T21:52:24.680Z,5.80
2023-01-03T21:55:07.958Z,5.32
2023-01-03T21:57:50.751Z,5.57
2023-01-03T22:00:34.847Z,5.85
2023-01-03T22:03:36.244Z,5.10
2023-01-03T22:06:18.943Z,4.82
2023-01-03T22:09:01.760Z,4.80
2023-01-03T22:11:44.534Z,4.63
2023-01-03T22:14:27.239Z,4.65
2023-01-03T22:17:11.191Z,4.72
2023-01-03T22:19:53.894Z,4.50
2023-01-03T22:22:36.517Z,4.18
2023-01-03T22:25:20.495Z,4.25
2023-01-03T22:28:03.495Z,4.13
2023-01-03T22:30:46.192Z,3.95
2023-01-03T22:33:34.573Z,4.43
2023-01-03T22:36:17.877Z,3.47
2023-01-03T22:39:00.459Z,3.88
2023-01-03T22:41:43.080Z,3.50
2023-01-03T22:44:25.733Z,3.67
2023-01-03T22:47:08.758Z,3.67
2023-01-03T22:49:52.688Z,3.30
2023-01-03T22:52:35.391Z,3.30
2023-01-03T22:55:18.149Z,3.20
2023-01-03T22:58:00.792Z,3.50
2023-01-03T23:00:45.702Z,3.58
2023-01-03T23:03:28.349Z,3.13
2023-01-03T23:06:13.605Z,3.20
2023-01-03T23:08:56.398Z,2.65
2023-01-03T23:11:56.714Z,2.55
2023-01-03T23:14:39.316Z,2.55
2023-01-03T23:17:48.061Z,2.63
2023-01-03T23:20:31.848Z,2.38
2023-01-03T23:23:15.804Z,2.30
2023-01-03T23:25:58.378Z,2.63
2023-01-03T23:28:41.007Z,1.90
2023-01-03T23:31:24.698Z,2.00
2023-01-03T23:34:08.498Z,2.50
2023-01-03T23:36:51.137Z,1.90
2023-01-03T23:39:35.230Z,1.90
2023-01-03T23:42:17.814Z,1.90
2023-01-03T23:45:00.472Z,2.10
2023-01-03T23:47:43.099Z,1.80
2023-01-03T23:50:25.739Z,1.65
2023-01-03T23:53:08.375Z,1.77
2023-01-03T23:55:52.296Z,1.85
2023-01-03T23:58:34.915Z,2.00
